sensor_id;sensor_type;location;lat;lon;timestamp;P1;durP1;ratioP1;P2;durP2;ratioP2
1977;SDS011;989;53.016;8.346;2023-06-05T00:01:27;15.45;;;6.50;;
1977;SDS011;989;53.016;8.346;2023-06-05T00:03:53;8.15;;;4.55;;
1977;SDS011;989;53.016;8.346;2023-06-05T00:06:19;11.23;;;6.35;;
1977;SDS011;989;53.016;8.346;2023-06-05T00:08:45;12.10;;;6.03;;
1977;SDS011;989;53.016;8.346;2023-06-05T00:11:11;15.43;;;7.13;;
1977;SDS011;989;53.016;8.346;2023-06-05T00:13:37;17.63;;;6.50;;
1977;SDS011;989;53.016;8.346;2023-06-05T00:16:03;16.80;;;6.55;;
1977;SDS011;989;53.016;8.346;2023-06-05T00:18:30;13.75;;;6.20;;
1977;SDS011;989;53.016;8.346;2023-06-05T00:20:56;19.92;;;6.82;;
1977;SDS011;989;53.016;8.346;2023-06-05T00:23:22;11.40;;;5.50;;
1977;SDS011;989;53.016;8.346;2023-06-05T00:25:48;12.98;;;6.20;;
1977;SDS011;989;53.016;8.346;2023-06-05T00:28:14;7.55;;;4.78;;
1977;SDS011;989;53.016;8.346;2023-06-05T00:30:40;16.02;;;7.65;;
1977;SDS011;989;53.016;8.346;2023-06-05T00:33:06;20.33;;;7.15;;
1977;SDS011;989;53.016;8.346;2023-06-05T00:35:33;14.32;;;6.25;;
1977;SDS011;989;53.016;8.346;2023-06-05T00:37:59;18.92;;;6.18;;
1977;SDS011;989;53.016;8.346;2023-06-05T00:40:25;14.93;;;6.70;;
1977;SDS011;989;53.016;8.346;2023-06-05T00:42:51;17.58;;;6.80;;
1977;SDS011;989;53.016;8.346;2023-06-05T00:45:17;17.02;;;7.47;;
1977;SDS011;989;53.016;8.346;2023-06-05T00:47:43;16.95;;;7.80;;
1977;SDS011;989;53.016;8.346;2023-06-05T00:50:09;11.93;;;6.18;;
1977;SDS011;989;53.016;8.346;2023-06-05T00:52:40;21.80;;;7.78;;
1977;SDS011;989;53.016;8.346;2023-06-05T00:55:07;12.13;;;6.38;;
1977;SDS011;989;53.016;8.346;2023-06-05T00:57:33;12.82;;;6.25;;
1977;SDS011;989;53.016;8.346;2023-06-05T01:00:01;17.98;;;7.47;;
1977;SDS011;989;53.016;8.346;2023-06-05T01:02:32;12.40;;;5.97;;
1977;SDS011;989;53.016;8.346;2023-06-05T01:04:59;13.68;;;6.65;;
1977;SDS011;989;53.016;8.346;2023-06-05T01:07:25;18.77;;;7.70;;
1977;SDS011;989;53.016;8.346;2023-06-05T01:09:53;10.93;;;6.50;;
1977;SDS011;989;53.016;8.346;2023-06-05T01:12:25;23.15;;;8.20;;
1977;SDS011;989;53.016;8.346;2023-06-05T01:14:56;15.27;;;6.88;;
1977;SDS011;989;53.016;8.346;2023-06-05T01:17:24;18.60;;;7.05;;
1977;SDS011;989;53.016;8.346;2023-06-05T01:19:53;15.10;;;7.00;;
1977;SDS011;989;53.016;8.346;2023-06-05T01:22:20;13.75;;;7.10;;
1977;SDS011;989;53.016;8.346;2023-06-05T01:24:46;26.35;;;7.15;;
1977;SDS011;989;53.016;8.346;2023-06-05T01:27:14;15.88;;;7.80;;
1977;SDS011;989;53.016;8.346;2023-06-05T01:29:51;18.13;;;7.88;;
1977;SDS011;989;53.016;8.346;2023-06-05T01:32:30;14.55;;;7.90;;
1977;SDS011;989;53.016;8.346;2023-06-05T01:35:09;14.82;;;7.20;;
1977;SDS011;989;53.016;8.346;2023-06-05T01:37:42;14.70;;;6.85;;
1977;SDS011;989;53.016;8.346;2023-06-05T01:40:14;22.08;;;7.53;;
1977;SDS011;989;53.016;8.346;2023-06-05T01:42:42;16.63;;;8.00;;
1977;SDS011;989;53.016;8.346;2023-06-05T01:45:09;24.20;;;9.73;;
1977;SDS011;989;53.016;8.346;2023-06-05T01:47:36;19.13;;;7.70;;
1977;SDS011;989;53.016;8.346;2023-06-05T01:50:04;17.77;;;8.93;;
1977;SDS011;989;53.016;8.346;2023-06-05T01:52:32;15.90;;;7.97;;
1977;SDS011;989;53.016;8.346;2023-06-05T01:55:00;24.33;;;9.35;;
1977;SDS011;989;53.016;8.346;2023-06-05T01:57:27;31.10;;;9.93;;
1977;SDS011;989;53.016;8.346;2023-06-05T01:59:53;19.67;;;8.00;;
1977;SDS011;989;53.016;8.346;2023-06-05T02:02:20;21.40;;;8.18;;
1977;SDS011;989;53.016;8.346;2023-06-05T02:04:49;16.33;;;7.13;;
1977;SDS011;989;53.016;8.346;2023-06-05T02:07:15;19.30;;;8.30;;
1977;SDS011;989;53.016;8.346;2023-06-05T02:09:41;21.52;;;8.35;;
1977;SDS011;989;53.016;8.346;2023-06-05T02:12:08;14.77;;;8.55;;
1977;SDS011;989;53.016;8.346;2023-06-05T02:14:35;15.07;;;7.85;;
1977;SDS011;989;53.016;8.346;2023-06-05T02:17:02;28.10;;;7.45;;
1977;SDS011;989;53.016;8.346;2023-06-05T02:19:31;19.25;;;8.05;;
1977;SDS011;989;53.016;8.346;2023-06-05T02:21:58;21.85;;;8.82;;
1977;SDS011;989;53.016;8.346;2023-06-05T02:24:24;17.65;;;7.78;;
1977;SDS011;989;53.016;8.346;2023-06-05T02:26:51;17.08;;;8.05;;
1977;SDS011;989;53.016;8.346;2023-06-05T02:29:17;19.77;;;8.20;;
1977;SDS011;989;53.016;8.346;2023-06-05T02:31:43;14.55;;;6.85;;
1977;SDS011;989;53.016;8.346;2023-06-05T02:34:10;19.60;;;8.68;;
1977;SDS011;989;53.016;8.346;2023-06-05T02:36:36;21.63;;;9.38;;
1977;SDS011;989;53.016;8.346;2023-06-05T02:39:03;16.08;;;8.50;;
1977;SDS011;989;53.016;8.346;2023-06-05T02:41:32;13.30;;;7.32;;
1977;SDS011;989;53.016;8.346;2023-06-05T02:43:58;19.05;;;8.18;;
1977;SDS011;989;53.016;8.346;2023-06-05T02:46:25;21.98;;;8.73;;
1977;SDS011;989;53.016;8.346;2023-06-05T02:48:51;21.48;;;8.82;;
1977;SDS011;989;53.016;8.346;2023-06-05T02:51:17;22.17;;;8.32;;
1977;SDS011;989;53.016;8.346;2023-06-05T02:53:43;17.63;;;8.55;;
1977;SDS011;989;53.016;8.346;2023-06-05T02:56:10;22.55;;;8.80;;
1977;SDS011;989;53.016;8.346;2023-06-05T02:58:37;16.90;;;7.63;;
1977;SDS011;989;53.016;8.346;2023-06-05T03:01:04;18.63;;;8.27;;
1977;SDS011;989;53.016;8.346;2023-06-05T03:03:33;15.25;;;7.63;;
1977;SDS011;989;53.016;8.346;2023-06-05T03:06:00;18.40;;;7.90;;
1977;SDS011;989;53.016;8.346;2023-06-05T03:08:31;18.45;;;9.10;;
1977;SDS011;989;53.016;8.346;2023-06-05T03:11:00;15.07;;;7.65;;
1977;SDS011;989;53.016;8.346;2023-06-05T03:13:30;23.65;;;8.13;;
1977;SDS011;989;53.016;8.346;2023-06-05T03:15:57;22.95;;;8.80;;
1977;SDS011;989;53.016;8.346;2023-06-05T03:18:26;19.70;;;7.85;;
1977;SDS011;989;53.016;8.346;2023-06-05T03:20:52;21.95;;;9.25;;
1977;SDS011;989;53.016;8.346;2023-06-05T03:23:23;18.27;;;8.57;;
1977;SDS011;989;53.016;8.346;2023-06-05T03:25:53;21.95;;;8.07;;
1977;SDS011;989;53.016;8.346;2023-06-05T03:28:20;25.23;;;9.02;;
1977;SDS011;989;53.016;8.346;2023-06-05T03:30:47;25.38;;;9.45;;
1977;SDS011;989;53.016;8.346;2023-06-05T03:33:14;24.33;;;9.40;;
1977;SDS011;989;53.016;8.346;2023-06-05T03:35:42;24.17;;;8.68;;
1977;SDS011;989;53.016;8.346;2023-06-05T03:38:11;18.42;;;7.72;;
1977;SDS011;989;53.016;8.346;2023-06-05T03:40:37;26.90;;;9.13;;
1977;SDS011;989;53.016;8.346;2023-06-05T03:43:04;20.75;;;8.23;;
1977;SDS011;989;53.016;8.346;2023-06-05T03:45:31;31.42;;;9.52;;
1977;SDS011;989;53.016;8.346;2023-06-05T03:47:57;19.92;;;8.18;;
1977;SDS011;989;53.016;8.346;2023-06-05T03:50:25;17.23;;;9.23;;
1977;SDS011;989;53.016;8.346;2023-06-05T03:52:53;21.58;;;10.02;;
1977;SDS011;989;53.016;8.346;2023-06-05T03:55:27;21.85;;;9.73;;
1977;SDS011;989;53.016;8.346;2023-06-05T03:58:03;18.10;;;8.35;;
1977;SDS011;989;53.016;8.346;2023-06-05T04:00:29;18.10;;;8.43;;
1977;SDS011;989;53.016;8.346;2023-06-05T04:02:55;33.17;;;10.18;;
1977;SDS011;989;53.016;8.346;2023-06-05T04:05:23;25.83;;;9.77;;
1977;SDS011;989;53.016;8.346;2023-06-05T04:07:49;25.90;;;9.18;;
1977;SDS011;989;53.016;8.346;2023-06-05T04:10:15;25.80;;;8.70;;
1977;SDS011;989;53.016;8.346;2023-06-05T04:12:41;35.17;;;9.77;;
1977;SDS011;989;53.016;8.346;2023-06-05T04:15:07;26.98;;;9.43;;
1977;SDS011;989;53.016;8.346;2023-06-05T04:17:34;25.23;;;9.70;;
1977;SDS011;989;53.016;8.346;2023-06-05T04:20:02;35.93;;;11.70;;
1977;SDS011;989;53.016;8.346;2023-06-05T04:22:29;30.30;;;10.33;;
1977;SDS011;989;53.016;8.346;2023-06-05T04:24:56;38.83;;;11.27;;
1977;SDS011;989;53.016;8.346;2023-06-05T04:27:22;26.10;;;10.37;;
1977;SDS011;989;53.016;8.346;2023-06-05T04:29:53;31.83;;;12.40;;
1977;SDS011;989;53.016;8.346;2023-06-05T04:32:19;34.60;;;11.73;;
1977;SDS011;989;53.016;8.346;2023-06-05T04:34:45;41.07;;;10.03;;
1977;SDS011;989;53.016;8.346;2023-06-05T04:37:11;27.83;;;10.80;;
1977;SDS011;989;53.016;8.346;2023-06-05T04:39:38;24.20;;;10.37;;
1977;SDS011;989;53.016;8.346;2023-06-05T04:42:04;21.23;;;9.03;;
1977;SDS011;989;53.016;8.346;2023-06-05T04:44:32;37.10;;;11.20;;
1977;SDS011;989;53.016;8.346;2023-06-05T04:46:58;28.90;;;9.37;;
1977;SDS011;989;53.016;8.346;2023-06-05T04:49:25;21.93;;;9.43;;
1977;SDS011;989;53.016;8.346;2023-06-05T04:51:51;16.87;;;8.13;;
1977;SDS011;989;53.016;8.346;2023-06-05T04:54:18;15.80;;;8.13;;
1977;SDS011;989;53.016;8.346;2023-06-05T04:56:44;14.50;;;7.67;;
1977;SDS011;989;53.016;8.346;2023-06-05T04:59:11;19.33;;;8.50;;
1977;SDS011;989;53.016;8.346;2023-06-05T05:01:37;15.23;;;7.10;;
1977;SDS011;989;53.016;8.346;2023-06-05T05:04:05;17.50;;;6.90;;
1977;SDS011;989;53.016;8.346;2023-06-05T05:06:31;13.73;;;7.00;;
1977;SDS011;989;53.016;8.346;2023-06-05T05:08:58;13.13;;;5.93;;
1977;SDS011;989;53.016;8.346;2023-06-05T05:11:24;7.93;;;5.40;;
1977;SDS011;989;53.016;8.346;2023-06-05T05:13:51;14.03;;;7.20;;
1977;SDS011;989;53.016;8.346;2023-06-05T05:16:17;19.83;;;6.93;;
1977;SDS011;989;53.016;8.346;2023-06-05T05:18:44;15.43;;;6.60;;
1977;SDS011;989;53.016;8.346;2023-06-05T05:21:10;12.70;;;5.93;;
1977;SDS011;989;53.016;8.346;2023-06-05T05:23:36;12.63;;;6.03;;
1977;SDS011;989;53.016;8.346;2023-06-05T05:26:02;11.93;;;6.03;;
1977;SDS011;989;53.016;8.346;2023-06-05T05:28:29;14.50;;;6.10;;
1977;SDS011;989;53.016;8.346;2023-06-05T05:30:55;16.93;;;6.13;;
1977;SDS011;989;53.016;8.346;2023-06-05T05:33:22;8.50;;;5.13;;
1977;SDS011;989;53.016;8.346;2023-06-05T05:35:48;14.13;;;5.80;;
1977;SDS011;989;53.016;8.346;2023-06-05T05:38:15;12.73;;;6.27;;
1977;SDS011;989;53.016;8.346;2023-06-05T05:40:41;16.00;;;6.33;;
1977;SDS011;989;53.016;8.346;2023-06-05T05:43:07;15.47;;;5.50;;
1977;SDS011;989;53.016;8.346;2023-06-05T05:45:33;16.10;;;6.30;;
1977;SDS011;989;53.016;8.346;2023-06-05T05:48:01;12.40;;;5.83;;
1977;SDS011;989;53.016;8.346;2023-06-05T05:50:28;12.30;;;6.50;;
1977;SDS011;989;53.016;8.346;2023-06-05T05:52:54;12.03;;;5.83;;
1977;SDS011;989;53.016;8.346;2023-06-05T05:55:20;11.10;;;5.00;;
1977;SDS011;989;53.016;8.346;2023-06-05T05:57:46;11.87;;;5.40;;
1977;SDS011;989;53.016;8.346;2023-06-05T06:00:13;12.23;;;5.43;;
1977;SDS011;989;53.016;8.346;2023-06-05T06:02:39;13.00;;;6.20;;
1977;SDS011;989;53.016;8.346;2023-06-05T06:05:06;14.53;;;6.23;;
1977;SDS011;989;53.016;8.346;2023-06-05T06:07:33;23.93;;;6.17;;
1977;SDS011;989;53.016;8.346;2023-06-05T06:10:00;14.57;;;6.60;;
1977;SDS011;989;53.016;8.346;2023-06-05T06:12:27;9.67;;;6.00;;
1977;SDS011;989;53.016;8.346;2023-06-05T06:14:54;11.60;;;5.43;;
1977;SDS011;989;53.016;8.346;2023-06-05T06:17:20;6.70;;;4.50;;
1977;SDS011;989;53.016;8.346;2023-06-05T06:19:46;10.10;;;5.83;;
1977;SDS011;989;53.016;8.346;2023-06-05T06:22:13;9.30;;;4.50;;
1977;SDS011;989;53.016;8.346;2023-06-05T06:24:41;17.13;;;4.33;;
1977;SDS011;989;53.016;8.346;2023-06-05T06:27:09;11.33;;;5.20;;
1977;SDS011;989;53.016;8.346;2023-06-05T06:29:45;8.37;;;3.90;;
1977;SDS011;989;53.016;8.346;2023-06-05T06:32:13;6.03;;;3.70;;
1977;SDS011;989;53.016;8.346;2023-06-05T06:34:41;5.70;;;3.10;;
1977;SDS011;989;53.016;8.346;2023-06-05T06:37:09;14.53;;;5.03;;
1977;SDS011;989;53.016;8.346;2023-06-05T06:39:37;9.90;;;4.47;;
1977;SDS011;989;53.016;8.346;2023-06-05T06:42:03;13.20;;;4.07;;
1977;SDS011;989;53.016;8.346;2023-06-05T06:44:29;10.23;;;4.50;;
1977;SDS011;989;53.016;8.346;2023-06-05T06:46:56;9.93;;;4.03;;
1977;SDS011;989;53.016;8.346;2023-06-05T06:49:22;9.40;;;4.40;;
1977;SDS011;989;53.016;8.346;2023-06-05T06:51:48;10.43;;;4.37;;
1977;SDS011;989;53.016;8.346;2023-06-05T06:54:14;8.37;;;4.33;;
1977;SDS011;989;53.016;8.346;2023-06-05T06:56:40;7.73;;;4.03;;
1977;SDS011;989;53.016;8.346;2023-06-05T06:59:13;9.70;;;4.07;;
1977;SDS011;989;53.016;8.346;2023-06-05T07:01:46;8.80;;;4.10;;
1977;SDS011;989;53.016;8.346;2023-06-05T07:04:15;7.40;;;3.30;;
1977;SDS011;989;53.016;8.346;2023-06-05T07:06:45;7.57;;;4.13;;
1977;SDS011;989;53.016;8.346;2023-06-05T07:09:12;6.90;;;4.17;;
1977;SDS011;989;53.016;8.346;2023-06-05T07:11:38;6.53;;;3.13;;
1977;SDS011;989;53.016;8.346;2023-06-05T07:14:05;4.90;;;3.77;;
1977;SDS011;989;53.016;8.346;2023-06-05T07:16:32;14.50;;;4.13;;
1977;SDS011;989;53.016;8.346;2023-06-05T07:18:58;7.50;;;3.87;;
1977;SDS011;989;53.016;8.346;2023-06-05T07:21:24;7.40;;;3.27;;
1977;SDS011;989;53.016;8.346;2023-06-05T07:23:52;7.60;;;4.13;;
1977;SDS011;989;53.016;8.346;2023-06-05T07:26:18;5.40;;;3.83;;
1977;SDS011;989;53.016;8.346;2023-06-05T07:28:45;9.80;;;4.63;;
1977;SDS011;989;53.016;8.346;2023-06-05T07:31:14;8.80;;;3.37;;
1977;SDS011;989;53.016;8.346;2023-06-05T07:33:41;12.70;;;3.87;;
1977;SDS011;989;53.016;8.346;2023-06-05T07:36:07;7.13;;;4.10;;
1977;SDS011;989;53.016;8.346;2023-06-05T07:38:35;5.37;;;3.33;;
1977;SDS011;989;53.016;8.346;2023-06-05T07:41:01;10.40;;;4.30;;
1977;SDS011;989;53.016;8.346;2023-06-05T07:43:27;7.47;;;3.57;;
1977;SDS011;989;53.016;8.346;2023-06-05T07:45:53;6.77;;;4.93;;
1977;SDS011;989;53.016;8.346;2023-06-05T07:48:20;7.17;;;4.70;;
1977;SDS011;989;53.016;8.346;2023-06-05T07:50:46;11.47;;;5.10;;
1977;SDS011;989;53.016;8.346;2023-06-05T07:53:12;6.97;;;4.13;;
1977;SDS011;989;53.016;8.346;2023-06-05T07:55:38;7.37;;;3.93;;
1977;SDS011;989;53.016;8.346;2023-06-05T07:58:04;14.87;;;5.00;;
1977;SDS011;989;53.016;8.346;2023-06-05T08:00:30;7.43;;;4.37;;
1977;SDS011;989;53.016;8.346;2023-06-05T08:02:56;8.93;;;4.33;;
1977;SDS011;989;53.016;8.346;2023-06-05T08:05:23;7.30;;;4.27;;
1977;SDS011;989;53.016;8.346;2023-06-05T08:07:49;15.80;;;4.70;;
1977;SDS011;989;53.016;8.346;2023-06-05T08:10:15;7.47;;;4.10;;
1977;SDS011;989;53.016;8.346;2023-06-05T08:12:41;10.63;;;4.10;;
1977;SDS011;989;53.016;8.346;2023-06-05T08:15:07;10.30;;;4.50;;
1977;SDS011;989;53.016;8.346;2023-06-05T08:17:34;8.13;;;4.47;;
1977;SDS011;989;53.016;8.346;2023-06-05T08:20:00;7.83;;;4.30;;
1977;SDS011;989;53.016;8.346;2023-06-05T08:22:29;8.40;;;4.30;;
1977;SDS011;989;53.016;8.346;2023-06-05T08:24:56;7.57;;;4.10;;
1977;SDS011;989;53.016;8.346;2023-06-05T08:27:24;9.63;;;4.20;;
1977;SDS011;989;53.016;8.346;2023-06-05T08:29:50;9.93;;;4.80;;
1977;SDS011;989;53.016;8.346;2023-06-05T08:32:16;8.43;;;4.00;;
1977;SDS011;989;53.016;8.346;2023-06-05T08:34:45;8.60;;;4.07;;
1977;SDS011;989;53.016;8.346;2023-06-05T08:37:11;7.67;;;4.63;;
1977;SDS011;989;53.016;8.346;2023-06-05T08:39:37;6.33;;;4.23;;
1977;SDS011;989;53.016;8.346;2023-06-05T08:42:03;15.17;;;3.93;;
1977;SDS011;989;53.016;8.346;2023-06-05T08:44:30;8.87;;;4.00;;
1977;SDS011;989;53.016;8.346;2023-06-05T08:47:01;9.97;;;4.53;;
1977;SDS011;989;53.016;8.346;2023-06-05T08:49:28;9.60;;;3.73;;
1977;SDS011;989;53.016;8.346;2023-06-05T08:52:01;6.27;;;3.23;;
1977;SDS011;989;53.016;8.346;2023-06-05T08:54:32;5.80;;;3.97;;
1977;SDS011;989;53.016;8.346;2023-06-05T08:57:04;7.50;;;3.37;;
1977;SDS011;989;53.016;8.346;2023-06-05T08:59:34;4.80;;;3.50;;
1977;SDS011;989;53.016;8.346;2023-06-05T09:02:00;7.73;;;3.40;;
1977;SDS011;989;53.016;8.346;2023-06-05T09:04:26;7.50;;;3.93;;
1977;SDS011;989;53.016;8.346;2023-06-05T09:06:55;7.30;;;4.17;;
1977;SDS011;989;53.016;8.346;2023-06-05T09:09:22;11.40;;;4.60;;
1977;SDS011;989;53.016;8.346;2023-06-05T09:12:01;9.53;;;4.10;;
1977;SDS011;989;53.016;8.346;2023-06-05T09:14:31;8.03;;;5.00;;
1977;SDS011;989;53.016;8.346;2023-06-05T09:16:58;5.30;;;3.70;;
1977;SDS011;989;53.016;8.346;2023-06-05T09:19:35;9.23;;;4.80;;
1977;SDS011;989;53.016;8.346;2023-06-05T09:22:01;10.10;;;4.40;;
1977;SDS011;989;53.016;8.346;2023-06-05T09:24:28;7.90;;;3.50;;
1977;SDS011;989;53.016;8.346;2023-06-05T09:29:28;9.00;;;3.57;;
1977;SDS011;989;53.016;8.346;2023-06-05T09:31:59;6.77;;;3.90;;
1977;SDS011;989;53.016;8.346;2023-06-05T09:36:54;5.83;;;3.80;;
1977;SDS011;989;53.016;8.346;2023-06-05T09:39:22;6.03;;;4.30;;
1977;SDS011;989;53.016;8.346;2023-06-05T09:41:52;7.93;;;4.50;;
1977;SDS011;989;53.016;8.346;2023-06-05T09:44:21;6.90;;;3.60;;
1977;SDS011;989;53.016;8.346;2023-06-05T09:46:58;9.13;;;3.43;;
1977;SDS011;989;53.016;8.346;2023-06-05T09:49:30;9.93;;;3.70;;
1977;SDS011;989;53.016;8.346;2023-06-05T09:51:57;8.53;;;3.60;;
1977;SDS011;989;53.016;8.346;2023-06-05T09:54:30;6.47;;;3.87;;
1977;SDS011;989;53.016;8.346;2023-06-05T09:56:58;9.00;;;3.63;;
1977;SDS011;989;53.016;8.346;2023-06-05T09:59:29;6.37;;;4.30;;
1977;SDS011;989;53.016;8.346;2023-06-05T10:01:56;6.27;;;3.90;;
1977;SDS011;989;53.016;8.346;2023-06-05T10:04:27;7.27;;;4.10;;
1977;SDS011;989;53.016;8.346;2023-06-05T10:06:55;10.10;;;4.07;;
1977;SDS011;989;53.016;8.346;2023-06-05T10:09:27;9.90;;;4.53;;
1977;SDS011;989;53.016;8.346;2023-06-05T10:11:55;7.30;;;4.43;;
1977;SDS011;989;53.016;8.346;2023-06-05T10:14:22;5.97;;;4.50;;
1977;SDS011;989;53.016;8.346;2023-06-05T10:16:49;5.40;;;3.50;;
1977;SDS011;989;53.016;8.346;2023-06-05T10:19:19;5.97;;;3.30;;
1977;SDS011;989;53.016;8.346;2023-06-05T10:21:49;7.73;;;4.00;;
1977;SDS011;989;53.016;8.346;2023-06-05T10:24:18;6.77;;;4.30;;
1977;SDS011;989;53.016;8.346;2023-06-05T10:26:54;7.57;;;4.37;;
1977;SDS011;989;53.016;8.346;2023-06-05T10:40:23;5.83;;;3.80;;
1977;SDS011;989;53.016;8.346;2023-06-05T10:42:50;7.93;;;4.57;;
1977;SDS011;989;53.016;8.346;2023-06-05T10:45:29;8.33;;;4.67;;
1977;SDS011;989;53.016;8.346;2023-06-05T10:47:56;7.00;;;4.07;;
1977;SDS011;989;53.016;8.346;2023-06-05T10:50:22;11.23;;;5.03;;
1977;SDS011;989;53.016;8.346;2023-06-05T10:52:53;10.40;;;4.20;;
1977;SDS011;989;53.016;8.346;2023-06-05T10:55:22;18.27;;;4.93;;
1977;SDS011;989;53.016;8.346;2023-06-05T11:00:28;10.40;;;4.93;;
1977;SDS011;989;53.016;8.346;2023-06-05T11:02:54;13.57;;;5.00;;
1977;SDS011;989;53.016;8.346;2023-06-05T11:05:21;6.67;;;4.43;;
1977;SDS011;989;53.016;8.346;2023-06-05T11:07:47;7.97;;;4.50;;
1977;SDS011;989;53.016;8.346;2023-06-05T11:10:17;9.20;;;4.80;;
1977;SDS011;989;53.016;8.346;2023-06-05T11:15:13;13.03;;;5.60;;
1977;SDS011;989;53.016;8.346;2023-06-05T11:20:56;5.93;;;4.30;;
1977;SDS011;989;53.016;8.346;2023-06-05T11:23:23;9.00;;;4.27;;
1977;SDS011;989;53.016;8.346;2023-06-05T11:25:53;6.53;;;5.10;;
1977;SDS011;989;53.016;8.346;2023-06-05T11:28:41;9.93;;;5.00;;
1977;SDS011;989;53.016;8.346;2023-06-05T11:31:08;12.50;;;5.20;;
1977;SDS011;989;53.016;8.346;2023-06-05T11:33:34;11.63;;;4.60;;
1977;SDS011;989;53.016;8.346;2023-06-05T11:36:01;10.67;;;3.80;;
1977;SDS011;989;53.016;8.346;2023-06-05T11:38:37;8.13;;;4.43;;
1977;SDS011;989;53.016;8.346;2023-06-05T11:41:05;11.27;;;4.47;;
1977;SDS011;989;53.016;8.346;2023-06-05T11:43:33;5.03;;;4.50;;
1977;SDS011;989;53.016;8.346;2023-06-05T11:46:06;8.20;;;4.30;;
1977;SDS011;989;53.016;8.346;2023-06-05T11:48:32;11.87;;;5.40;;
1977;SDS011;989;53.016;8.346;2023-06-05T11:50:59;7.87;;;4.20;;
1977;SDS011;989;53.016;8.346;2023-06-05T11:53:28;11.30;;;4.50;;
1977;SDS011;989;53.016;8.346;2023-06-05T11:55:55;6.27;;;4.80;;
1977;SDS011;989;53.016;8.346;2023-06-05T11:58:34;7.40;;;4.17;;
1977;SDS011;989;53.016;8.346;2023-06-05T12:03:32;11.77;;;4.40;;
1977;SDS011;989;53.016;8.346;2023-06-05T12:06:00;7.43;;;4.77;;
1977;SDS011;989;53.016;8.346;2023-06-05T12:08:28;8.70;;;4.63;;
1977;SDS011;989;53.016;8.346;2023-06-05T12:10:58;10.10;;;5.83;;
1977;SDS011;989;53.016;8.346;2023-06-05T12:13:44;12.87;;;5.27;;
1977;SDS011;989;53.016;8.346;2023-06-05T12:16:11;7.63;;;4.30;;
1977;SDS011;989;53.016;8.346;2023-06-05T12:18:37;11.23;;;4.27;;
1977;SDS011;989;53.016;8.346;2023-06-05T12:21:03;8.53;;;4.60;;
1977;SDS011;989;53.016;8.346;2023-06-05T12:23:31;7.53;;;4.30;;
1977;SDS011;989;53.016;8.346;2023-06-05T12:26:01;6.70;;;3.93;;
1977;SDS011;989;53.016;8.346;2023-06-05T12:28:29;5.67;;;4.00;;
1977;SDS011;989;53.016;8.346;2023-06-05T12:30:55;7.20;;;4.27;;
1977;SDS011;989;53.016;8.346;2023-06-05T12:33:22;5.00;;;3.27;;
1977;SDS011;989;53.016;8.346;2023-06-05T12:36:10;9.77;;;4.20;;
1977;SDS011;989;53.016;8.346;2023-06-05T12:38:36;6.73;;;4.10;;
1977;SDS011;989;53.016;8.346;2023-06-05T12:41:03;11.00;;;4.07;;
1977;SDS011;989;53.016;8.346;2023-06-05T12:43:33;5.27;;;3.50;;
1977;SDS011;989;53.016;8.346;2023-06-05T12:45:59;4.90;;;3.80;;
1977;SDS011;989;53.016;8.346;2023-06-05T12:48:25;11.37;;;3.50;;
1977;SDS011;989;53.016;8.346;2023-06-05T12:50:52;8.63;;;4.60;;
1977;SDS011;989;53.016;8.346;2023-06-05T12:53:19;6.93;;;4.53;;
1977;SDS011;989;53.016;8.346;2023-06-05T12:55:45;5.33;;;3.90;;
1977;SDS011;989;53.016;8.346;2023-06-05T12:58:11;5.77;;;3.90;;
1977;SDS011;989;53.016;8.346;2023-06-05T13:00:38;10.43;;;3.83;;
1977;SDS011;989;53.016;8.346;2023-06-05T13:03:04;6.23;;;4.20;;
1977;SDS011;989;53.016;8.346;2023-06-05T13:05:30;6.30;;;4.40;;
1977;SDS011;989;53.016;8.346;2023-06-05T13:07:57;11.63;;;4.77;;
1977;SDS011;989;53.016;8.346;2023-06-05T13:10:24;8.13;;;4.40;;
1977;SDS011;989;53.016;8.346;2023-06-05T13:12:50;11.73;;;4.67;;
1977;SDS011;989;53.016;8.346;2023-06-05T13:15:16;14.83;;;4.67;;
1977;SDS011;989;53.016;8.346;2023-06-05T13:17:43;6.37;;;4.33;;
1977;SDS011;989;53.016;8.346;2023-06-05T13:20:10;11.23;;;5.20;;
1977;SDS011;989;53.016;8.346;2023-06-05T13:22:38;7.10;;;4.73;;
1977;SDS011;989;53.016;8.346;2023-06-05T13:25:05;7.47;;;4.43;;
1977;SDS011;989;53.016;8.346;2023-06-05T13:27:32;8.00;;;5.00;;
1977;SDS011;989;53.016;8.346;2023-06-05T13:29:58;8.43;;;4.80;;
1977;SDS011;989;53.016;8.346;2023-06-05T13:32:24;14.87;;;4.90;;
1977;SDS011;989;53.016;8.346;2023-06-05T13:34:50;9.10;;;4.70;;
1977;SDS011;989;53.016;8.346;2023-06-05T13:37:17;8.10;;;4.20;;
1977;SDS011;989;53.016;8.346;2023-06-05T13:39:44;9.30;;;4.23;;
1977;SDS011;989;53.016;8.346;2023-06-05T13:42:10;5.83;;;3.90;;
1977;SDS011;989;53.016;8.346;2023-06-05T13:44:36;9.10;;;4.77;;
1977;SDS011;989;53.016;8.346;2023-06-05T13:47:03;8.67;;;4.13;;
1977;SDS011;989;53.016;8.346;2023-06-05T13:49:29;6.70;;;4.03;;
1977;SDS011;989;53.016;8.346;2023-06-05T13:51:58;11.60;;;4.43;;
1977;SDS011;989;53.016;8.346;2023-06-05T13:54:24;9.63;;;4.67;;
1977;SDS011;989;53.016;8.346;2023-06-05T13:56:50;9.57;;;4.80;;
1977;SDS011;989;53.016;8.346;2023-06-05T13:59:17;8.60;;;3.93;;
1977;SDS011;989;53.016;8.346;2023-06-05T14:01:43;5.13;;;3.80;;
1977;SDS011;989;53.016;8.346;2023-06-05T14:04:09;7.50;;;3.77;;
1977;SDS011;989;53.016;8.346;2023-06-05T14:06:35;5.67;;;3.50;;
1977;SDS011;989;53.016;8.346;2023-06-05T14:09:04;5.27;;;3.60;;
1977;SDS011;989;53.016;8.346;2023-06-05T14:11:30;6.73;;;4.17;;
1977;SDS011;989;53.016;8.346;2023-06-05T14:13:56;9.40;;;3.83;;
1977;SDS011;989;53.016;8.346;2023-06-05T14:16:23;4.53;;;3.60;;
1977;SDS011;989;53.016;8.346;2023-06-05T14:18:50;7.00;;;4.27;;
1977;SDS011;989;53.016;8.346;2023-06-05T14:21:16;9.83;;;4.50;;
1977;SDS011;989;53.016;8.346;2023-06-05T14:23:42;6.30;;;4.30;;
1977;SDS011;989;53.016;8.346;2023-06-05T14:26:08;15.50;;;5.63;;
1977;SDS011;989;53.016;8.346;2023-06-05T14:28:35;7.17;;;4.10;;
1977;SDS011;989;53.016;8.346;2023-06-05T14:31:02;5.47;;;3.87;;
1977;SDS011;989;53.016;8.346;2023-06-05T14:33:28;6.43;;;3.87;;
1977;SDS011;989;53.016;8.346;2023-06-05T14:35:54;6.83;;;3.70;;
1977;SDS011;989;53.016;8.346;2023-06-05T14:38:20;9.03;;;3.83;;
1977;SDS011;989;53.016;8.346;2023-06-05T14:40:46;5.27;;;3.80;;
1977;SDS011;989;53.016;8.346;2023-06-05T14:43:15;11.87;;;3.20;;
1977;SDS011;989;53.016;8.346;2023-06-05T14:45:41;4.97;;;3.50;;
1977;SDS011;989;53.016;8.346;2023-06-05T14:48:08;9.43;;;3.80;;
1977;SDS011;989;53.016;8.346;2023-06-05T14:50:35;5.17;;;3.80;;
1977;SDS011;989;53.016;8.346;2023-06-05T14:53:01;5.47;;;3.20;;
1977;SDS011;989;53.016;8.346;2023-06-05T14:55:27;5.50;;;3.33;;
1977;SDS011;989;53.016;8.346;2023-06-05T14:57:54;6.00;;;3.40;;
1977;SDS011;989;53.016;8.346;2023-06-05T15:00:20;8.53;;;3.93;;
1977;SDS011;989;53.016;8.346;2023-06-05T15:02:46;8.10;;;4.73;;
1977;SDS011;989;53.016;8.346;2023-06-05T15:05:12;5.87;;;3.80;;
1977;SDS011;989;53.016;8.346;2023-06-05T15:07:40;8.30;;;4.50;;
1977;SDS011;989;53.016;8.346;2023-06-05T15:10:07;11.20;;;3.60;;
1977;SDS011;989;53.016;8.346;2023-06-05T15:12:34;7.90;;;3.37;;
1977;SDS011;989;53.016;8.346;2023-06-05T15:15:01;9.13;;;3.67;;
1977;SDS011;989;53.016;8.346;2023-06-05T15:17:27;10.33;;;3.60;;
1977;SDS011;989;53.016;8.346;2023-06-05T15:19:53;8.40;;;3.13;;
1977;SDS011;989;53.016;8.346;2023-06-05T15:22:20;11.20;;;2.70;;
1977;SDS011;989;53.016;8.346;2023-06-05T15:24:46;4.20;;;3.50;;
1977;SDS011;989;53.016;8.346;2023-06-05T15:27:12;5.93;;;3.07;;
1977;SDS011;989;53.016;8.346;2023-06-05T15:29:39;7.00;;;2.40;;
1977;SDS011;989;53.016;8.346;2023-06-05T15:32:05;5.23;;;2.50;;
1977;SDS011;989;53.016;8.346;2023-06-05T15:34:31;8.10;;;2.50;;
1977;SDS011;989;53.016;8.346;2023-06-05T15:36:57;5.60;;;3.20;;
1977;SDS011;989;53.016;8.346;2023-06-05T15:39:23;8.10;;;3.00;;
1977;SDS011;989;53.016;8.346;2023-06-05T15:41:49;4.40;;;2.90;;
1977;SDS011;989;53.016;8.346;2023-06-05T15:44:16;8.77;;;3.20;;
1977;SDS011;989;53.016;8.346;2023-06-05T15:46:42;5.53;;;2.77;;
1977;SDS011;989;53.016;8.346;2023-06-05T15:49:10;7.43;;;3.27;;
1977;SDS011;989;53.016;8.346;2023-06-05T15:51:36;9.43;;;3.00;;